Time;durP1;ratioP1;P1;durP2;ratioP2;P2;SDS_P1;SDS_P2;PMS_P1;PMS_P2;Temp;Humidity;BMP_temperature;BMP_pressure;BME280_temperature;BME280_humidity;BME280_pressure;Samples;Min_cycle;Max_cycle;Signal;HPM_P1;HPM_P2
2023/08/13 00:02:27;;;;;;;2.08;1.23;;;19.10;99.90;;;;;;5085668;28;20723;-42
2023/08/13 00:04:53;;;;;;;4.90;1.88;;;19.10;99.90;;;;;;5079622;28;20039;-42
2023/08/13 00:07:19;;;;;;;4.88;1.63;;;19.10;99.90;;;;;;5082382;28;20028;-43
2023/08/13 00:09:44;;;;;;;3.55;1.58;;;19.10;99.90;;;;;;5081565;28;20024;-42
2023/08/13 00:12:10;;;;;;;5.28;1.77;;;19.10;99.90;;;;;;5079617;28;20028;-42
2023/08/13 00:14:36;;;;;;;4.38;1.70;;;19.00;99.90;;;;;;5083991;28;20016;-42
2023/08/13 00:17:02;;;;;;;3.35;1.50;;;19.00;99.90;;;;;;5076975;28;20090;-42
2023/08/13 00:19:27;;;;;;;4.07;1.70;;;19.00;99.90;;;;;;5086282;28;20052;-42
2023/08/13 00:21:53;;;;;;;3.90;1.77;;;18.90;99.90;;;;;;5075760;28;20734;-43
2023/08/13 00:24:18;;;;;;;3.55;1.60;;;18.90;99.90;;;;;;5085828;28;20024;-42
2023/08/13 00:26:50;;;;;;;3.67;1.45;;;18.90;99.90;;;;;;5076204;28;20024;-43
2023/08/13 00:29:15;;;;;;;2.58;1.42;;;18.80;99.90;;;;;;5086549;28;20051;-43
2023/08/13 00:31:41;;;;;;;3.67;1.92;;;18.80;99.90;;;;;;5074262;28;20472;-43
2023/08/13 00:34:06;;;;;;;2.90;1.45;;;18.70;99.90;;;;;;5086641;28;20555;-42
2023/08/13 00:36:32;;;;;;;2.88;1.75;;;18.70;99.90;;;;;;5073408;28;20029;-43
2023/08/13 00:38:57;;;;;;;5.45;1.65;;;18.70;99.90;;;;;;5086831;28;20093;-43
2023/08/13 00:41:23;;;;;;;5.30;2.33;;;18.70;99.90;;;;;;5075757;28;20028;-43
2023/08/13 00:43:49;;;;;;;4.15;1.73;;;18.70;99.90;;;;;;5084101;28;20089;-43
2023/08/13 00:46:18;;;;;;;2.65;1.35;;;18.60;99.90;;;;;;5078841;28;20016;-43
2023/08/13 00:48:44;;;;;;;3.58;1.83;;;18.60;99.90;;;;;;5082008;28;20619;-42
2023/08/13 00:51:11;;;;;;;4.65;1.58;;;18.60;99.90;;;;;;5079962;28;20062;-42
2023/08/13 00:53:46;;;;;;;3.88;1.67;;;18.60;99.90;;;;;;5080025;28;20020;-45
2023/08/13 00:56:13;;;;;;;5.10;1.50;;;18.60;99.90;;;;;;5080414;28;20021;-42
2023/08/13 00:58:40;;;;;;;3.38;1.67;;;18.50;99.90;;;;;;5082775;28;20036;-42
2023/08/13 01:01:06;;;;;;;5.10;1.60;;;18.50;99.90;;;;;;5083377;28;20490;-41
2023/08/13 01:03:33;;;;;;;3.53;1.65;;;18.40;99.90;;;;;;5075901;28;20099;-43
2023/08/13 01:06:21;;;;;;;5.13;2.10;;;18.40;99.90;;;;;;5083754;28;20408;-44
2023/08/13 01:09:05;;;;;;;5.78;1.90;;;18.30;99.90;;;;;;5077484;28;20024;-45
2023/08/13 01:11:43;;;;;;;6.22;1.95;;;18.30;99.90;;;;;;5083374;28;20034;-44
2023/08/13 01:14:25;;;;;;;3.50;1.67;;;18.30;99.90;;;;;;5078649;28;20085;-43
2023/08/13 01:16:53;;;;;;;3.63;1.70;;;18.30;99.90;;;;;;5081446;28;20046;-43
2023/08/13 01:19:22;;;;;;;5.45;1.45;;;18.20;99.90;;;;;;5078305;28;20028;-43
2023/08/13 01:21:47;;;;;;;3.78;1.67;;;18.20;99.90;;;;;;5084030;28;20059;-43
2023/08/13 01:24:13;;;;;;;4.45;1.70;;;18.20;99.90;;;;;;5075350;28;20104;-43
2023/08/13 01:27:07;;;;;;;4.47;1.70;;;18.20;99.90;;;;;;5084311;28;20044;-43
2023/08/13 01:29:48;;;;;;;4.57;2.20;;;18.20;99.90;;;;;;5069948;28;20051;-42
2023/08/13 01:32:16;;;;;;;4.15;2.10;;;18.30;99.90;;;;;;5081764;28;20020;-42
2023/08/13 01:34:43;;;;;;;5.20;1.77;;;18.20;99.90;;;;;;5077170;28;20032;-43
2023/08/13 01:37:09;;;;;;;6.45;2.20;;;18.20;99.90;;;;;;5084232;28;20513;-43
2023/08/13 01:39:35;;;;;;;4.85;1.90;;;18.20;99.90;;;;;;5074145;28;20020;-43
2023/08/13 01:42:01;;;;;;;3.08;1.58;;;18.20;99.90;;;;;;5084041;28;20129;-43
2023/08/13 01:44:26;;;;;;;4.03;1.60;;;18.10;99.90;;;;;;5074412;28;20095;-43
2023/08/13 01:46:52;;;;;;;4.07;1.75;;;18.10;99.90;;;;;;5085480;28;20071;-43
2023/08/13 01:49:19;;;;;;;3.85;1.75;;;18.10;99.90;;;;;;5071770;28;20018;-43
2023/08/13 01:51:45;;;;;;;4.63;1.63;;;18.00;99.90;;;;;;5085775;28;20032;-43
2023/08/13 01:54:13;;;;;;;4.18;1.80;;;18.00;99.90;;;;;;5071479;28;20109;-43
2023/08/13 01:56:39;;;;;;;3.70;1.65;;;18.00;99.90;;;;;;5085618;28;20052;-42
2023/08/13 01:59:04;;;;;;;4.55;1.95;;;18.00;99.90;;;;;;5076569;28;20436;-42
2023/08/13 02:01:30;;;;;;;6.25;1.80;;;18.00;99.90;;;;;;5066343;28;20028;-42
2023/08/13 02:03:55;;;;;;;3.13;1.55;;;18.00;99.90;;;;;;5073522;28;20031;-43
2023/08/13 02:06:22;;;;;;;6.30;1.73;;;17.90;99.90;;;;;;5068243;28;20089;-43
2023/08/13 02:08:47;;;;;;;3.35;1.77;;;17.90;99.90;;;;;;5070470;28;20089;-43
2023/08/13 02:11:13;;;;;;;2.65;1.58;;;17.90;99.90;;;;;;5071152;28;20377;-42
2023/08/13 02:13:38;;;;;;;3.78;1.50;;;17.90;99.90;;;;;;5068113;28;20408;-42
2023/08/13 02:16:05;;;;;;;5.07;1.60;;;17.80;99.90;;;;;;5072934;28;20115;-42
2023/08/13 02:18:31;;;;;;;4.38;1.75;;;17.80;99.90;;;;;;5065809;28;20434;-43
2023/08/13 02:20:56;;;;;;;2.35;1.60;;;17.70;99.90;;;;;;5075204;28;20027;-43
2023/08/13 02:23:22;;;;;;;4.68;1.88;;;17.70;99.90;;;;;;5065765;28;20024;-42
2023/08/13 02:25:49;;;;;;;4.35;1.60;;;17.70;99.90;;;;;;5076056;28;20077;-42
2023/08/13 02:28:15;;;;;;;4.38;1.80;;;17.60;99.90;;;;;;5063570;28;20098;-42
2023/08/13 02:30:40;;;;;;;3.65;1.65;;;17.60;99.90;;;;;;5072012;28;20151;-42
2023/08/13 02:33:06;;;;;;;4.22;1.70;;;17.60;99.90;;;;;;5084002;28;20533;-42
2023/08/13 02:35:31;;;;;;;3.90;1.70;;;17.60;99.90;;;;;;5070936;28;20031;-42
2023/08/13 02:37:57;;;;;;;2.60;1.58;;;17.50;99.90;;;;;;5084086;28;20051;-43
2023/08/13 02:40:23;;;;;;;4.25;1.52;;;17.50;99.90;;;;;;5073815;28;20024;-42
2023/08/13 02:42:48;;;;;;;3.92;1.48;;;17.50;99.90;;;;;;5081760;28;20036;-42
2023/08/13 02:45:14;;;;;;;3.60;1.60;;;17.50;99.90;;;;;;5075874;28;20013;-42
2023/08/13 02:47:39;;;;;;;5.35;1.50;;;17.40;99.90;;;;;;5080240;28;20035;-42
2023/08/13 02:50:09;;;;;;;3.15;1.48;;;17.40;99.90;;;;;;5077694;28;20044;-43
2023/08/13 02:52:38;;;;;;;5.40;1.70;;;17.40;99.90;;;;;;5078061;28;20097;-42
2023/08/13 02:55:04;;;;;;;3.17;1.40;;;17.40;99.90;;;;;;5079878;28;20020;-42
2023/08/13 02:57:32;;;;;;;5.07;1.67;;;17.40;99.90;;;;;;5069589;28;20086;-42
2023/08/13 02:59:58;;;;;;;3.35;1.33;;;17.30;99.90;;;;;;5065287;28;20051;-42
2023/08/13 03:02:24;;;;;;;4.18;1.50;;;17.30;99.90;;;;;;5074914;28;20056;-43
2023/08/13 03:04:50;;;;;;;4.47;1.63;;;17.30;99.90;;;;;;5065795;28;20032;-42
2023/08/13 03:07:22;;;;;;;2.47;1.40;;;17.30;99.90;;;;;;5074744;28;20132;-43
2023/08/13 03:09:48;;;;;;;5.07;2.15;;;17.40;99.90;;;;;;5064416;28;20109;-42
2023/08/13 03:12:13;;;;;;;4.20;1.65;;;17.40;99.90;;;;;;5075497;28;20106;-42
2023/08/13 03:14:46;;;;;;;3.28;1.33;;;17.30;99.90;;;;;;5064372;28;20032;-42
2023/08/13 03:17:12;;;;;;;4.80;1.80;;;17.40;99.90;;;;;;5075324;28;20067;-42
2023/08/13 03:19:37;;;;;;;4.82;1.52;;;17.30;99.90;;;;;;5064412;28;20066;-42
2023/08/13 03:22:03;;;;;;;5.03;1.70;;;17.30;99.90;;;;;;5075853;28;20502;-42
2023/08/13 03:24:28;;;;;;;5.10;1.65;;;17.30;99.90;;;;;;5063418;28;20058;-42
2023/08/13 03:26:54;;;;;;;4.30;2.10;;;17.30;99.90;;;;;;5074122;28;20024;-42
2023/08/13 03:29:19;;;;;;;3.95;1.77;;;17.20;99.90;;;;;;5068921;28;20472;-42
2023/08/13 03:31:45;;;;;;;5.65;1.75;;;17.20;99.90;;;;;;5074811;28;20088;-42
2023/08/13 03:34:11;;;;;;;3.63;1.48;;;17.20;99.90;;;;;;5072453;28;20058;-42
2023/08/13 03:36:37;;;;;;;4.55;1.77;;;17.20;99.90;;;;;;5073046;28;20031;-42
2023/08/13 03:39:05;;;;;;;5.45;1.67;;;17.20;99.90;;;;;;5074886;28;20777;-43
2023/08/13 03:41:31;;;;;;;4.47;1.80;;;17.20;99.90;;;;;;5071108;28;20024;-43
2023/08/13 03:43:57;;;;;;;3.30;1.35;;;17.10;99.90;;;;;;5077782;28;20078;-44
2023/08/13 03:46:22;;;;;;;8.02;1.85;;;17.10;99.90;;;;;;5068921;28;20020;-42
2023/08/13 03:48:48;;;;;;;6.25;2.13;;;17.10;99.90;;;;;;5078954;28;20491;-43
2023/08/13 03:51:13;;;;;;;4.28;2.28;;;17.10;99.90;;;;;;5068147;28;20052;-44
2023/08/13 03:53:39;;;;;;;3.38;2.10;;;17.10;99.90;;;;;;5078233;28;20712;-44
2023/08/13 03:56:06;;;;;;;5.00;1.70;;;17.10;99.90;;;;;;5067726;28;20028;-43
2023/08/13 03:58:31;;;;;;;4.38;1.85;;;17.10;99.90;;;;;;5069492;28;20391;-43
2023/08/13 04:01:09;;;;;;;3.08;1.70;;;17.10;99.90;;;;;;5067314;28;20486;-42
2023/08/13 04:03:34;;;;;;;5.50;1.70;;;17.10;99.90;;;;;;5080914;28;20135;-42
2023/08/13 04:06:00;;;;;;;5.88;1.85;;;17.10;99.90;;;;;;5066390;28;20099;-42
2023/08/13 04:08:26;;;;;;;4.28;1.52;;;17.10;99.90;;;;;;5078845;28;20440;-42
2023/08/13 04:10:52;;;;;;;3.92;1.65;;;17.00;99.90;;;;;;5068303;28;20044;-42
2023/08/13 04:13:21;;;;;;;5.50;1.65;;;17.10;99.90;;;;;;5075307;28;20106;-42
2023/08/13 04:15:47;;;;;;;4.25;1.67;;;17.10;99.90;;;;;;5070181;28;20365;-42
2023/08/13 04:18:13;;;;;;;4.18;2.00;;;17.00;99.90;;;;;;5073642;28;20112;-42
2023/08/13 04:20:41;;;;;;;5.38;1.60;;;17.00;99.90;;;;;;5072347;28;20044;-42
2023/08/13 04:23:07;;;;;;;3.97;1.63;;;17.00;99.90;;;;;;5070681;28;20024;-42
2023/08/13 04:25:33;;;;;;;3.42;1.65;;;17.00;99.90;;;;;;5075600;28;20027;-42
2023/08/13 04:27:58;;;;;;;4.32;1.77;;;17.00;99.90;;;;;;5068114;28;20032;-43
2023/08/13 04:30:24;;;;;;;3.13;1.67;;;17.00;99.90;;;;;;5078195;28;20029;-43
2023/08/13 04:32:56;;;;;;;6.72;2.00;;;16.90;99.90;;;;;;5068195;28;20130;-42
2023/08/13 04:35:22;;;;;;;3.50;1.75;;;16.90;99.90;;;;;;5077365;28;20441;-42
2023/08/13 04:37:49;;;;;;;3.97;1.77;;;16.90;99.90;;;;;;5068599;28;20119;-43
2023/08/13 04:40:15;;;;;;;3.72;1.67;;;16.90;99.90;;;;;;5078221;28;20056;-42
2023/08/13 04:42:44;;;;;;;5.15;1.70;;;16.90;99.90;;;;;;5066561;28;20059;-43
2023/08/13 04:45:12;;;;;;;4.72;1.83;;;17.00;99.90;;;;;;5079170;28;20057;-42
2023/08/13 04:47:38;;;;;;;3.20;1.40;;;17.00;99.90;;;;;;5066003;28;20055;-43
2023/08/13 04:50:08;;;;;;;3.92;1.45;;;17.00;99.90;;;;;;5077739;28;20139;-42
2023/08/13 04:52:33;;;;;;;3.88;1.50;;;17.00;99.90;;;;;;5066825;28;20506;-42
2023/08/13 04:55:02;;;;;;;3.80;1.30;;;17.00;99.90;;;;;;5077779;28;20024;-43
2023/08/13 04:57:28;;;;;;;4.65;1.50;;;17.00;99.90;;;;;;5070149;28;20566;-42
2023/08/13 04:59:53;;;;;;;3.92;1.45;;;17.00;99.90;;;;;;5077115;28;20468;-42
2023/08/13 05:02:19;;;;;;;2.42;1.40;;;17.10;99.90;;;;;;5082404;28;20463;-42
2023/08/13 05:04:44;;;;;;;2.78;1.50;;;17.10;99.90;;;;;;5079799;28;20108;-43
2023/08/13 05:07:10;;;;;;;5.70;1.75;;;17.10;99.90;;;;;;5080099;28;20383;-43
2023/08/13 05:09:36;;;;;;;3.50;1.30;;;17.20;99.90;;;;;;5082068;28;20018;-43
2023/08/13 05:12:01;;;;;;;3.00;1.33;;;17.10;99.90;;;;;;5076709;28;20114;-43
2023/08/13 05:14:27;;;;;;;5.82;1.83;;;17.20;99.90;;;;;;5085042;28;20149;-43
2023/08/13 05:16:54;;;;;;;4.95;1.38;;;17.20;99.90;;;;;;5074474;28;20058;-43
2023/08/13 05:19:20;;;;;;;4.70;1.40;;;17.30;99.90;;;;;;5084082;28;20388;-42
2023/08/13 05:21:46;;;;;;;3.55;1.67;;;17.40;99.90;;;;;;5075131;28;20082;-43
2023/08/13 05:24:32;;;;;;;4.22;1.80;;;17.40;99.90;;;;;;5084967;28;20031;-43
2023/08/13 05:26:57;;;;;;;5.32;1.50;;;17.40;99.90;;;;;;5076328;28;20052;-42
2023/08/13 05:29:23;;;;;;;4.55;1.50;;;17.40;99.90;;;;;;5066015;28;20043;-42
2023/08/13 05:31:48;;;;;;;3.00;1.45;;;17.50;99.90;;;;;;5077389;28;20024;-41
2023/08/13 05:34:21;;;;;;;4.15;1.40;;;17.50;99.90;;;;;;5065606;28;20070;-42
2023/08/13 05:36:47;;;;;;;3.72;1.17;;;17.50;99.90;;;;;;5078263;28;20089;-42
2023/08/13 05:39:12;;;;;;;2.80;1.17;;;17.60;99.90;;;;;;5064772;28;20033;-41
2023/08/13 05:41:38;;;;;;;3.92;1.60;;;17.60;99.90;;;;;;5078065;28;20681;-42
2023/08/13 05:44:03;;;;;;;5.80;1.60;;;17.60;99.90;;;;;;5064706;28;20094;-43
2023/08/13 05:46:29;;;;;;;3.35;1.50;;;17.60;99.90;;;;;;5075014;28;20031;-43
2023/08/13 05:48:55;;;;;;;3.25;1.55;;;17.70;99.90;;;;;;5067807;28;20025;-42
2023/08/13 05:51:21;;;;;;;4.70;1.73;;;17.70;99.90;;;;;;5070138;28;20079;-42
2023/08/13 05:53:47;;;;;;;3.97;1.55;;;17.70;99.90;;;;;;5071159;28;20523;-43
2023/08/13 05:56:12;;;;;;;2.55;1.30;;;17.70;99.90;;;;;;5069356;28;20756;-43
2023/08/13 05:58:38;;;;;;;3.53;1.30;;;17.70;99.90;;;;;;5071926;28;20385;-43
2023/08/13 06:01:04;;;;;;;2.13;1.50;;;17.70;99.90;;;;;;5066431;28;20674;-46
2023/08/13 06:03:29;;;;;;;6.18;1.88;;;17.70;99.90;;;;;;5076588;28;20041;-43
2023/08/13 06:05:56;;;;;;;3.70;1.48;;;17.70;99.90;;;;;;5066016;28;20016;-42
2023/08/13 06:08:22;;;;;;;3.65;1.50;;;17.70;99.90;;;;;;5076366;28;20463;-42
2023/08/13 06:10:47;;;;;;;6.03;1.83;;;17.70;99.90;;;;;;5066312;28;20028;-42
2023/08/13 06:13:13;;;;;;;4.20;1.98;;;17.70;99.90;;;;;;5075551;28;20044;-43
2023/08/13 06:15:39;;;;;;;3.90;2.00;;;17.80;99.90;;;;;;5065413;28;20035;-43
2023/08/13 06:18:05;;;;;;;2.63;1.73;;;17.80;99.90;;;;;;5076782;28;20036;-43
2023/08/13 06:20:31;;;;;;;2.97;1.75;;;17.80;99.90;;;;;;5064079;28;20026;-42
2023/08/13 06:22:57;;;;;;;5.13;1.70;;;17.80;99.90;;;;;;5075663;28;20028;-42
2023/08/13 06:25:23;;;;;;;2.70;1.60;;;17.80;99.90;;;;;;5065341;28;20066;-42
2023/08/13 06:27:51;;;;;;;4.22;1.60;;;17.80;99.90;;;;;;5072954;28;20039;-42
2023/08/13 06:30:17;;;;;;;6.32;2.00;;;17.90;99.90;;;;;;5067224;28;20024;-42
2023/08/13 06:32:43;;;;;;;3.95;1.88;;;17.90;99.90;;;;;;5071990;28;20031;-43
2023/08/13 06:35:09;;;;;;;6.20;2.20;;;18.00;99.90;;;;;;5079211;28;20470;-42
2023/08/13 06:37:34;;;;;;;5.15;2.35;;;18.10;99.90;;;;;;5079785;28;20048;-44
2023/08/13 06:40:00;;;;;;;5.15;2.17;;;18.10;99.90;;;;;;5075970;28;20027;-43
2023/08/13 06:42:26;;;;;;;4.40;2.08;;;18.20;99.90;;;;;;5081981;28;20031;-43
2023/08/13 06:44:51;;;;;;;5.28;1.85;;;18.30;99.90;;;;;;5073775;28;20016;-42
2023/08/13 06:47:17;;;;;;;6.40;2.70;;;18.30;99.90;;;;;;5082636;28;20043;-43
2023/08/13 06:49:42;;;;;;;7.28;2.40;;;18.40;99.90;;;;;;5072341;28;20103;-42
2023/08/13 06:52:08;;;;;;;4.53;2.10;;;18.50;99.90;;;;;;5083523;28;20413;-43
2023/08/13 06:54:33;;;;;;;4.25;1.75;;;18.50;99.90;;;;;;5071791;28;20028;-43
2023/08/13 06:57:00;;;;;;;4.97;1.92;;;18.60;99.90;;;;;;5084277;28;20077;-43
2023/08/13 06:59:25;;;;;;;3.88;1.70;;;18.60;99.90;;;;;;5077916;28;20131;-43
2023/08/13 07:01:51;;;;;;;3.85;1.77;;;18.60;99.90;;;;;;5064213;28;20128;-44
2023/08/13 07:04:17;;;;;;;3.42;1.55;;;18.70;99.90;;;;;;5075493;28;20517;-43
2023/08/13 07:06:43;;;;;;;3.15;1.60;;;18.70;99.90;;;;;;5065930;28;20032;-43
2023/08/13 07:09:11;;;;;;;4.70;1.90;;;18.80;99.90;;;;;;5071540;28;20020;-44
2023/08/13 07:11:37;;;;;;;6.60;2.00;;;18.70;99.90;;;;;;5067676;28;20035;-43
2023/08/13 07:14:05;;;;;;;4.10;1.85;;;18.80;99.90;;;;;;5069634;28;20012;-43
2023/08/13 07:16:31;;;;;;;4.68;1.90;;;18.80;99.90;;;;;;5069217;28;20020;-43
2023/08/13 07:18:58;;;;;;;5.70;1.77;;;18.90;99.90;;;;;;5067714;28;20489;-42
2023/08/13 07:21:24;;;;;;;7.22;1.90;;;18.90;99.90;;;;;;5072107;28;20052;-42
2023/08/13 07:23:50;;;;;;;3.30;1.80;;;19.00;99.90;;;;;;5065792;28;20472;-42
2023/08/13 07:26:15;;;;;;;4.50;1.73;;;19.00;99.90;;;;;;5074172;28;20528;-42
2023/08/13 07:28:41;;;;;;;4.53;2.03;;;19.00;99.90;;;;;;5065309;28;20057;-41
2023/08/13 07:31:06;;;;;;;4.40;1.77;;;19.10;99.90;;;;;;5074345;28;20067;-42
2023/08/13 07:33:33;;;;;;;3.20;1.70;;;19.10;99.90;;;;;;5064182;28;20135;-42
2023/08/13 07:36:02;;;;;;;3.65;1.55;;;19.20;99.90;;;;;;5075765;28;20111;-42
2023/08/13 07:38:29;;;;;;;3.72;1.30;;;19.30;99.90;;;;;;5063604;28;20110;-42
2023/08/13 07:40:58;;;;;;;4.88;1.42;;;19.50;99.90;;;;;;5076738;28;20028;-42
2023/08/13 07:43:24;;;;;;;3.20;1.20;;;19.70;99.90;;;;;;5063616;28;20039;-42
2023/08/13 07:45:51;;;;;;;4.90;1.50;;;20.00;99.90;;;;;;5075718;28;20025;-42
2023/08/13 07:48:17;;;;;;;3.97;1.70;;;20.20;99.90;;;;;;5063589;28;20029;-42
2023/08/13 07:50:43;;;;;;;3.63;1.52;;;20.40;99.90;;;;;;5073138;28;20518;-42
2023/08/13 07:53:09;;;;;;;3.15;1.48;;;20.60;99.90;;;;;;5065591;28;20088;-42
2023/08/13 07:55:35;;;;;;;3.55;1.33;;;20.70;99.90;;;;;;5071404;28;20028;-43
2023/08/13 07:58:00;;;;;;;5.18;1.50;;;20.80;99.90;;;;;;5073142;28;20040;-43
2023/08/13 08:00:26;;;;;;;6.13;1.90;;;20.90;99.90;;;;;;5078538;28;20554;-43
2023/08/13 08:02:54;;;;;;;3.47;1.10;;;21.00;99.90;;;;;;5076689;28;20079;-42
2023/08/13 08:05:20;;;;;;;5.10;1.60;;;21.00;99.90;;;;;;5079771;28;20020;-42
2023/08/13 08:07:46;;;;;;;1.90;1.20;;;20.90;99.90;;;;;;5075243;28;20027;-43
2023/08/13 08:10:12;;;;;;;4.45;1.33;;;20.90;99.90;;;;;;5081969;28;20028;-43
2023/08/13 08:12:38;;;;;;;4.88;1.50;;;20.80;99.90;;;;;;5072082;28;20013;-42
2023/08/13 08:15:05;;;;;;;3.88;1.50;;;20.80;99.90;;;;;;5084595;28;20058;-43
2023/08/13 08:17:31;;;;;;;4.18;1.35;;;20.80;99.90;;;;;;5076544;28;20035;-43
2023/08/13 08:19:59;;;;;;;6.55;1.60;;;20.80;99.90;;;;;;5087010;28;20058;-42
2023/08/13 08:22:26;;;;;;;4.90;1.50;;;20.90;99.90;;;;;;5074719;28;20562;-42
2023/08/13 08:24:51;;;;;;;4.32;1.35;;;21.00;99.90;;;;;;5087776;28;20020;-42
2023/08/13 08:27:17;;;;;;;3.50;1.55;;;21.10;99.90;;;;;;5072981;28;20474;-42
2023/08/13 08:29:43;;;;;;;4.55;1.70;;;21.20;99.90;;;;;;5087861;28;20023;-42
2023/08/13 08:32:08;;;;;;;3.10;1.40;;;21.20;99.90;;;;;;5075480;28;20636;-41
2023/08/13 08:34:34;;;;;;;3.15;1.65;;;21.30;99.90;;;;;;5084892;28;20250;-41
2023/08/13 08:37:00;;;;;;;4.75;1.60;;;21.30;99.90;;;;;;5078724;28;20032;-42
2023/08/13 08:39:25;;;;;;;5.15;1.63;;;21.40;99.90;;;;;;5082716;28;20118;-42
2023/08/13 08:41:56;;;;;;;3.67;1.35;;;21.40;99.90;;;;;;5081430;28;20492;-44
2023/08/13 08:44:22;;;;;;;3.65;1.52;;;21.40;99.90;;;;;;5080407;28;20024;-43
2023/08/13 08:47:09;;;;;;;4.85;1.65;;;21.40;99.90;;;;;;5082723;28;20071;-43
2023/08/13 08:49:38;;;;;;;4.88;1.63;;;21.40;99.90;;;;;;5081156;28;20495;-43
2023/08/13 08:52:06;;;;;;;4.05;1.17;;;21.40;99.90;;;;;;5081993;28;20013;-43
2023/08/13 08:54:32;;;;;;;3.17;1.30;;;21.40;99.90;;;;;;5078497;28;20020;-43
2023/08/13 08:56:58;;;;;;;3.67;1.55;;;21.50;99.90;;;;;;5084413;28;20032;-43
2023/08/13 08:59:24;;;;;;;3.03;1.40;;;21.50;99.90;;;;;;5083508;28;20034;-43
2023/08/13 09:01:49;;;;;;;4.70;1.60;;;21.50;99.90;;;;;;5084126;28;20136;-43
2023/08/13 09:04:15;;;;;;;3.90;1.38;;;21.60;99.90;;;;;;5074628;28;20127;-43
2023/08/13 09:06:58;;;;;;;2.53;1.00;;;21.70;99.90;;;;;;5085794;28;20020;-43
2023/08/13 09:09:28;;;;;;;5.20;1.65;;;21.80;99.90;;;;;;5076654;28;20623;-43
2023/08/13 09:11:55;;;;;;;4.28;1.55;;;21.90;99.90;;;;;;5067526;28;20582;-42
2023/08/13 09:14:25;;;;;;;3.83;1.40;;;22.00;99.90;;;;;;5076702;28;20514;-43
2023/08/13 09:16:53;;;;;;;3.97;1.50;;;22.10;99.90;;;;;;5065797;28;20365;-42
2023/08/13 09:19:19;;;;;;;3.03;1.30;;;22.20;99.90;;;;;;5078704;28;20031;-42
2023/08/13 09:21:50;;;;;;;5.15;1.27;;;22.30;99.90;;;;;;5067086;28;20029;-42
2023/08/13 09:24:16;;;;;;;5.57;1.60;;;22.40;99.90;;;;;;5077263;28;20487;-42
2023/08/13 09:26:42;;;;;;;4.28;1.63;;;22.50;99.90;;;;;;5065208;28;20028;-43
2023/08/13 09:29:08;;;;;;;5.00;1.60;;;22.60;99.90;;;;;;5076401;28;20096;-42
2023/08/13 09:31:34;;;;;;;4.22;1.38;;;22.70;99.90;;;;;;5066971;28;20036;-42
2023/08/13 09:34:00;;;;;;;6.15;1.80;;;22.80;99.90;;;;;;5074384;28;20008;-42
2023/08/13 09:36:27;;;;;;;6.28;1.88;;;22.90;99.90;;;;;;5069085;28;20052;-43
2023/08/13 09:38:53;;;;;;;3.05;1.50;;;23.00;99.90;;;;;;5072299;28;20047;-43
2023/08/13 09:41:20;;;;;;;3.25;1.55;;;23.00;99.90;;;;;;5071180;28;20021;-42
2023/08/13 09:43:49;;;;;;;5.85;1.55;;;23.00;99.90;;;;;;5069797;28;20028;-43
2023/08/13 09:46:25;;;;;;;6.28;1.80;;;23.10;99.90;;;;;;5073253;28;20078;-43
2023/08/13 09:48:54;;;;;;;3.38;1.30;;;23.20;99.90;;;;;;5069529;28;20439;-43
2023/08/13 09:51:30;;;;;;;3.13;1.30;;;23.30;99.90;;;;;;5073166;28;20052;-43
2023/08/13 09:54:03;;;;;;;3.65;1.30;;;23.40;99.90;;;;;;5068951;28;20139;-42
2023/08/13 09:56:30;;;;;;;3.78;1.30;;;23.50;99.90;;;;;;5074981;28;20099;-42
2023/08/13 09:58:56;;;;;;;4.13;1.50;;;23.50;99.90;;;;;;5075651;28;20043;-43
2023/08/13 10:01:25;;;;;;;4.95;1.55;;;23.60;99.90;;;;;;5074871;28;20052;-43
2023/08/13 10:03:51;;;;;;;3.03;1.27;;;23.50;99.90;;;;;;5084275;28;20016;-43
2023/08/13 10:06:19;;;;;;;5.65;1.45;;;23.50;99.90;;;;;;5073371;28;20030;-44
2023/08/13 10:08:45;;;;;;;5.47;1.48;;;23.50;99.90;;;;;;5085578;28;20176;-43
2023/08/13 10:11:12;;;;;;;2.88;1.33;;;23.60;99.90;;;;;;5072847;28;20024;-43
2023/08/13 10:13:39;;;;;;;3.42;1.27;;;23.60;99.90;;;;;;5084782;28;20032;-44
2023/08/13 10:16:05;;;;;;;4.18;1.50;;;23.70;99.90;;;;;;5071381;28;20754;-44
2023/08/13 10:18:32;;;;;;;5.72;1.50;;;23.80;99.90;;;;;;5084982;28;20035;-44
2023/08/13 10:20:57;;;;;;;4.43;1.92;;;23.80;99.90;;;;;;5072441;28;20078;-43
2023/08/13 10:23:23;;;;;;;4.63;1.30;;;23.90;99.90;;;;;;5084708;28;20028;-43
2023/08/13 10:25:52;;;;;;;3.08;1.00;;;23.90;99.90;;;;;;5074868;28;20170;-43
2023/08/13 10:28:32;;;;;;;4.57;1.25;;;23.90;99.90;;;;;;5081952;28;20112;-43
2023/08/13 10:31:23;;;;;;;2.88;1.27;;;23.90;99.90;;;;;;5074982;28;20521;-43
2023/08/13 10:33:59;;;;;;;4.03;1.70;;;24.10;99.90;;;;;;5064735;28;20115;-43
2023/08/13 10:36:51;;;;;;;3.55;1.63;;;24.20;99.90;;;;;;5076826;28;20020;-44
2023/08/13 10:39:30;;;;;;;3.35;1.30;;;24.20;99.90;;;;;;5064090;28;20564;-43
2023/08/13 10:41:58;;;;;;;4.20;1.40;;;24.10;99.90;;;;;;5076993;28;20123;-43
2023/08/13 10:44:39;;;;;;;5.13;2.00;;;24.10;99.90;;;;;;5063979;28;20035;-42
2023/08/13 10:47:05;;;;;;;5.05;1.48;;;24.00;99.90;;;;;;5075693;28;20110;-43
2023/08/13 10:49:34;;;;;;;2.92;1.20;;;24.00;99.90;;;;;;5064298;28;20186;-43
2023/08/13 10:52:03;;;;;;;2.30;1.08;;;24.00;99.90;;;;;;5076098;28;20852;-42
2023/08/13 10:54:32;;;;;;;1.98;1.05;;;24.00;99.90;;;;;;5063885;28;20086;-42
2023/08/13 10:56:58;;;;;;;3.95;1.30;;;24.00;99.90;;;;;;5075078;28;20069;-43
2023/08/13 10:59:37;;;;;;;3.63;1.30;;;24.00;99.90;;;;;;5081549;28;20065;-42
2023/08/13 11:02:14;;;;;;;2.35;1.00;;;23.90;99.90;;;;;;5072903;28;20042;-42
2023/08/13 11:04:42;;;;;;;3.80;1.25;;;23.90;99.90;;;;;;5083846;28;20028;-41
2023/08/13 11:07:09;;;;;;;1.80;1.00;;;24.00;99.90;;;;;;5074449;28;20130;-42
2023/08/13 11:09:35;;;;;;;3.05;1.30;;;23.90;99.90;;;;;;5080839;28;20036;-42
2023/08/13 11:12:01;;;;;;;4.05;1.35;;;24.00;99.90;;;;;;5077031;28;20107;-42
2023/08/13 11:14:28;;;;;;;2.65;1.13;;;24.00;99.90;;;;;;5078453;28;20107;-42
2023/08/13 11:16:58;;;;;;;2.50;1.10;;;24.20;99.90;;;;;;5078999;28;20024;-43
2023/08/13 11:19:24;;;;;;;2.83;1.30;;;24.20;99.90;;;;;;5076859;28;20039;-43
2023/08/13 11:21:49;;;;;;;3.13;1.00;;;24.30;99.90;;;;;;5081302;28;20020;-43
2023/08/13 11:24:15;;;;;;;3.90;1.70;;;24.30;99.90;;;;;;5073249;28;20529;-43
2023/08/13 11:26:44;;;;;;;3.85;1.50;;;24.40;99.90;;;;;;5083620;28;20025;-43
2023/08/13 11:29:10;;;;;;;2.22;1.00;;;24.40;99.90;;;;;;5072160;28;20027;-42
2023/08/13 11:31:38;;;;;;;3.15;1.10;;;24.40;99.90;;;;;;5082925;28;20451;-42
2023/08/13 11:34:05;;;;;;;3.00;1.60;;;24.50;99.90;;;;;;5080233;28;20016;-41
2023/08/13 11:36:33;;;;;;;3.97;1.83;;;24.40;99.90;;;;;;5084336;28;20028;-41
2023/08/13 11:38:59;;;;;;;4.95;1.75;;;24.40;99.90;;;;;;5071130;28;20039;-42
2023/08/13 11:41:24;;;;;;;4.32;1.65;;;24.40;99.90;;;;;;5084595;28;20032;-42
2023/08/13 11:43:57;;;;;;;5.93;1.55;;;24.30;99.90;;;;;;5071083;28;20056;-42
2023/08/13 11:46:25;;;;;;;2.05;1.13;;;24.30;99.90;;;;;;5084441;28;20040;-42
2023/08/13 11:48:54;;;;;;;3.90;1.60;;;24.30;99.90;;;;;;5071886;28;20040;-42
2023/08/13 11:51:26;;;;;;;2.63;1.30;;;24.30;99.90;;;;;;5086684;28;20582;-42
2023/08/13 11:53:54;;;;;;;4.07;1.42;;;24.30;99.90;;;;;;5077522;28;20530;-42
2023/08/13 11:56:20;;;;;;;4.03;1.40;;;24.40;99.90;;;;;;5085803;28;20031;-42
2023/08/13 11:58:46;;;;;;;4.43;1.40;;;24.50;99.90;;;;;;5076485;28;20044;-41
2023/08/13 12:01:13;;;;;;;2.85;1.00;;;24.70;99.90;;;;;;5085776;28;20500;-42
2023/08/13 12:03:44;;;;;;;3.08;1.10;;;24.80;99.90;;;;;;5081654;28;20074;-43
2023/08/13 12:06:10;;;;;;;2.92;1.00;;;24.90;99.90;;;;;;5080555;28;20676;-43
2023/08/13 12:08:36;;;;;;;2.47;0.90;;;25.00;99.90;;;;;;5083450;28;20498;-43
2023/08/13 12:11:05;;;;;;;3.47;1.20;;;25.00;99.90;;;;;;5078299;28;20027;-43
2023/08/13 12:13:41;;;;;;;3.83;1.40;;;25.00;99.90;;;;;;5085587;28;20035;-43
2023/08/13 12:16:06;;;;;;;4.47;1.58;;;25.00;99.90;;;;;;5078113;28;20782;-43
2023/08/13 12:18:32;;;;;;;4.65;1.20;;;25.00;99.90;;;;;;5085213;28;20052;-43
2023/08/13 12:20:57;;;;;;;5.72;1.52;;;25.00;99.90;;;;;;5075987;28;20418;-44
2023/08/13 12:23:23;;;;;;;4.63;1.52;;;25.00;99.90;;;;;;5085939;28;20024;-43
2023/08/13 12:25:49;;;;;;;3.38;1.45;;;25.00;99.90;;;;;;5075562;28;20547;-43
2023/08/13 12:28:14;;;;;;;3.20;1.20;;;25.00;99.90;;;;;;5087111;28;20376;-43
2023/08/13 12:30:40;;;;;;;3.78;1.50;;;25.00;99.90;;;;;;5074323;28;20024;-43
2023/08/13 12:33:05;;;;;;;3.10;1.10;;;25.00;99.90;;;;;;5086153;28;20040;-43
2023/08/13 12:35:31;;;;;;;2.63;1.05;;;25.00;99.90;;;;;;5073144;28;20012;-43
2023/08/13 12:37:59;;;;;;;3.33;1.60;;;25.00;99.90;;;;;;5085383;28;20086;-43
2023/08/13 12:40:25;;;;;;;4.88;1.45;;;25.10;99.90;;;;;;5074896;28;20027;-43
2023/08/13 12:42:51;;;;;;;3.40;1.40;;;25.10;99.90;;;;;;5083906;28;20202;-43
2023/08/13 12:45:16;;;;;;;3.83;1.50;;;25.10;99.90;;;;;;5077990;28;20017;-43
2023/08/13 12:47:42;;;;;;;1.60;0.95;;;25.20;99.90;;;;;;5081434;28;20114;-43
2023/08/13 12:50:08;;;;;;;4.22;1.40;;;25.20;99.90;;;;;;5080429;28;20052;-43